sensor_id;sensor_type;location;lat;lon;timestamp;temperature;humidity
29353;DHT22;16344;50.364;8.944;2022-08-21T00:02:21;21.40;1.00
29353;DHT22;16344;50.364;8.944;2022-08-21T00:04:47;21.20;1.00
29353;DHT22;16344;50.364;8.944;2022-08-21T00:07:13;21.10;1.00
29353;DHT22;16344;50.364;8.944;2022-08-21T00:09:40;21.00;1.00
29353;DHT22;16344;50.364;8.944;2022-08-21T00:12:06;21.10;1.00
29353;DHT22;16344;50.364;8.944;2022-08-21T00:14:32;21.00;1.00
29353;DHT22;16344;50.364;8.944;2022-08-21T00:16:58;21.00;1.00
29353;DHT22;16344;50.364;8.944;2022-08-21T00:19:24;21.00;1.00
29353;DHT22;16344;50.364;8.944;2022-08-21T00:21:51;20.90;1.00
29353;DHT22;16344;50.364;8.944;2022-08-21T00:24:18;20.90;1.00
29353;DHT22;16344;50.364;8.944;2022-08-21T00:26:44;20.80;1.00
29353;DHT22;16344;50.364;8.944;2022-08-21T00:29:10;20.80;1.00
29353;DHT22;16344;50.364;8.944;2022-08-21T00:31:36;20.90;1.00
29353;DHT22;16344;50.364;8.944;2022-08-21T00:34:02;20.90;1.00
29353;DHT22;16344;50.364;8.944;2022-08-21T00:36:28;21.00;1.00
29353;DHT22;16344;50.364;8.944;2022-08-21T00:38:54;21.30;1.00
29353;DHT22;16344;50.364;8.944;2022-08-21T00:41:20;21.40;1.00
29353;DHT22;16344;50.364;8.944;2022-08-21T00:43:48;21.40;1.00
29353;DHT22;16344;50.364;8.944;2022-08-21T00:46:14;21.50;1.00
29353;DHT22;16344;50.364;8.944;2022-08-21T00:48:39;21.50;1.00
29353;DHT22;16344;50.364;8.944;2022-08-21T00:51:11;21.60;1.00
29353;DHT22;16344;50.364;8.944;2022-08-21T00:53:41;21.70;1.00
29353;DHT22;16344;50.364;8.944;2022-08-21T00:56:09;21.50;1.00
29353;DHT22;16344;50.364;8.944;2022-08-21T00:58:36;21.40;1.00
29353;DHT22;16344;50.364;8.944;2022-08-21T01:01:04;21.40;1.00
29353;DHT22;16344;50.364;8.944;2022-08-21T01:03:31;21.30;1.00
29353;DHT22;16344;50.364;8.944;2022-08-21T01:05:57;21.30;1.00
29353;DHT22;16344;50.364;8.944;2022-08-21T01:08:23;21.20;1.00
29353;DHT22;16344;50.364;8.944;2022-08-21T01:10:51;21.10;1.00
29353;DHT22;16344;50.364;8.944;2022-08-21T01:13:18;21.10;1.00
29353;DHT22;16344;50.364;8.944;2022-08-21T01:15:47;21.10;1.00
29353;DHT22;16344;50.364;8.944;2022-08-21T01:18:14;21.10;14.70
29353;DHT22;16344;50.364;8.944;2022-08-21T01:21:03;21.10;23.00
29353;DHT22;16344;50.364;8.944;2022-08-21T01:23:28;21.20;5.40
29353;DHT22;16344;50.364;8.944;2022-08-21T01:25:54;21.30;1.00
29353;DHT22;16344;50.364;8.944;2022-08-21T01:28:21;21.40;1.00
29353;DHT22;16344;50.364;8.944;2022-08-21T01:30:48;21.20;1.00
29353;DHT22;16344;50.364;8.944;2022-08-21T01:33:17;21.20;1.00
29353;DHT22;16344;50.364;8.944;2022-08-21T01:35:43;21.10;1.00
29353;DHT22;16344;50.364;8.944;2022-08-21T01:38:08;21.00;1.00
29353;DHT22;16344;50.364;8.944;2022-08-21T01:40:34;20.90;1.00
29353;DHT22;16344;50.364;8.944;2022-08-21T01:43:00;20.80;1.00
29353;DHT22;16344;50.364;8.944;2022-08-21T01:45:26;21.00;1.00
29353;DHT22;16344;50.364;8.944;2022-08-21T01:47:51;20.90;1.00
29353;DHT22;16344;50.364;8.944;2022-08-21T01:50:19;20.90;2.50
29353;DHT22;16344;50.364;8.944;2022-08-21T01:52:45;20.90;7.60
29353;DHT22;16344;50.364;8.944;2022-08-21T01:55:12;21.00;1.00
29353;DHT22;16344;50.364;8.944;2022-08-21T01:57:38;21.00;2.90
29353;DHT22;16344;50.364;8.944;2022-08-21T02:00:06;21.10;5.10
29353;DHT22;16344;50.364;8.944;2022-08-21T02:02:33;21.10;12.60
29353;DHT22;16344;50.364;8.944;2022-08-21T02:04:59;21.10;7.70
29353;DHT22;16344;50.364;8.944;2022-08-21T02:07:24;21.00;9.00
29353;DHT22;16344;50.364;8.944;2022-08-21T02:09:50;21.00;18.40
29353;DHT22;16344;50.364;8.944;2022-08-21T02:12:15;21.00;21.00
29353;DHT22;16344;50.364;8.944;2022-08-21T02:14:41;21.00;24.50
29353;DHT22;16344;50.364;8.944;2022-08-21T02:17:07;20.90;43.70
29353;DHT22;16344;50.364;8.944;2022-08-21T02:19:32;20.70;63.80
29353;DHT22;16344;50.364;8.944;2022-08-21T02:21:58;20.50;77.00
29353;DHT22;16344;50.364;8.944;2022-08-21T02:24:23;20.20;99.90
29353;DHT22;16344;50.364;8.944;2022-08-21T02:26:49;20.10;99.90
29353;DHT22;16344;50.364;8.944;2022-08-21T02:29:14;20.10;99.90
29353;DHT22;16344;50.364;8.944;2022-08-21T02:31:40;20.10;99.90
29353;DHT22;16344;50.364;8.944;2022-08-21T02:34:05;20.00;99.90
29353;DHT22;16344;50.364;8.944;2022-08-21T02:36:31;20.10;99.90
29353;DHT22;16344;50.364;8.944;2022-08-21T02:38:57;20.10;99.90
29353;DHT22;16344;50.364;8.944;2022-08-21T02:41:23;20.00;99.90
29353;DHT22;16344;50.364;8.944;2022-08-21T02:43:49;20.00;99.90
29353;DHT22;16344;50.364;8.944;2022-08-21T02:46:17;20.00;99.90
29353;DHT22;16344;50.364;8.944;2022-08-21T02:48:42;20.10;99.90
29353;DHT22;16344;50.364;8.944;2022-08-21T02:51:14;20.10;99.90
29353;DHT22;16344;50.364;8.944;2022-08-21T02:53:41;20.20;98.40
29353;DHT22;16344;50.364;8.944;2022-08-21T02:56:10;20.20;79.20
29353;DHT22;16344;50.364;8.944;2022-08-21T02:58:39;20.30;68.90
29353;DHT22;16344;50.364;8.944;2022-08-21T03:01:06;20.30;53.90
29353;DHT22;16344;50.364;8.944;2022-08-21T03:03:36;20.20;70.40
29353;DHT22;16344;50.364;8.944;2022-08-21T03:06:03;20.10;77.10
29353;DHT22;16344;50.364;8.944;2022-08-21T03:08:28;20.20;65.30
29353;DHT22;16344;50.364;8.944;2022-08-21T03:10:54;20.10;65.00
29353;DHT22;16344;50.364;8.944;2022-08-21T03:13:21;20.30;50.10
29353;DHT22;16344;50.364;8.944;2022-08-21T03:15:48;20.10;54.90
29353;DHT22;16344;50.364;8.944;2022-08-21T03:18:14;20.10;49.90
29353;DHT22;16344;50.364;8.944;2022-08-21T03:20:41;20.10;44.30
29353;DHT22;16344;50.364;8.944;2022-08-21T03:23:07;20.10;52.30
29353;DHT22;16344;50.364;8.944;2022-08-21T03:25:34;20.20;49.70
29353;DHT22;16344;50.364;8.944;2022-08-21T03:28:06;20.00;55.00
29353;DHT22;16344;50.364;8.944;2022-08-21T03:30:31;20.10;55.20
29353;DHT22;16344;50.364;8.944;2022-08-21T03:32:59;20.10;36.10
29353;DHT22;16344;50.364;8.944;2022-08-21T03:35:25;20.00;46.80
29353;DHT22;16344;50.364;8.944;2022-08-21T03:37:51;20.00;47.00
29353;DHT22;16344;50.364;8.944;2022-08-21T03:40:19;19.90;56.00
29353;DHT22;16344;50.364;8.944;2022-08-21T03:42:46;20.00;46.80
29353;DHT22;16344;50.364;8.944;2022-08-21T03:45:13;20.00;33.40
29353;DHT22;16344;50.364;8.944;2022-08-21T03:47:57;20.00;30.40
29353;DHT22;16344;50.364;8.944;2022-08-21T03:50:29;19.90;37.20
29353;DHT22;16344;50.364;8.944;2022-08-21T03:52:55;20.00;26.30
29353;DHT22;16344;50.364;8.944;2022-08-21T03:55:21;19.90;45.40
29353;DHT22;16344;50.364;8.944;2022-08-21T03:57:47;19.90;65.50
29353;DHT22;16344;50.364;8.944;2022-08-21T04:00:14;19.90;78.70
29353;DHT22;16344;50.364;8.944;2022-08-21T04:02:40;19.80;89.70
29353;DHT22;16344;50.364;8.944;2022-08-21T04:05:07;19.80;92.30
29353;DHT22;16344;50.364;8.944;2022-08-21T04:07:33;19.90;78.90
29353;DHT22;16344;50.364;8.944;2022-08-21T04:09:59;19.80;76.00
29353;DHT22;16344;50.364;8.944;2022-08-21T04:12:24;19.80;59.60
29353;DHT22;16344;50.364;8.944;2022-08-21T04:14:50;19.70;61.70
29353;DHT22;16344;50.364;8.944;2022-08-21T04:17:17;19.60;66.60
29353;DHT22;16344;50.364;8.944;2022-08-21T04:19:43;19.50;87.30
29353;DHT22;16344;50.364;8.944;2022-08-21T04:22:08;19.40;90.60
29353;DHT22;16344;50.364;8.944;2022-08-21T04:24:34;19.40;87.90
29353;DHT22;16344;50.364;8.944;2022-08-21T04:26:59;19.40;81.90
29353;DHT22;16344;50.364;8.944;2022-08-21T04:29:25;19.50;69.80
29353;DHT22;16344;50.364;8.944;2022-08-21T04:31:50;19.60;51.00
29353;DHT22;16344;50.364;8.944;2022-08-21T04:34:17;19.60;44.10
29353;DHT22;16344;50.364;8.944;2022-08-21T04:36:43;19.50;40.70
29353;DHT22;16344;50.364;8.944;2022-08-21T04:39:09;19.50;52.80
29353;DHT22;16344;50.364;8.944;2022-08-21T04:41:34;19.50;57.20
29353;DHT22;16344;50.364;8.944;2022-08-21T04:44:01;19.50;49.60
29353;DHT22;16344;50.364;8.944;2022-08-21T04:46:26;19.50;42.70
29353;DHT22;16344;50.364;8.944;2022-08-21T04:48:52;19.50;33.40
29353;DHT22;16344;50.364;8.944;2022-08-21T04:51:23;19.50;34.70
29353;DHT22;16344;50.364;8.944;2022-08-21T04:53:57;19.50;44.50
29353;DHT22;16344;50.364;8.944;2022-08-21T04:56:26;19.60;50.40
29353;DHT22;16344;50.364;8.944;2022-08-21T04:58:55;19.70;45.50
29353;DHT22;16344;50.364;8.944;2022-08-21T05:01:24;20.00;27.20
29353;DHT22;16344;50.364;8.944;2022-08-21T05:03:55;20.50;5.90
29353;DHT22;16344;50.364;8.944;2022-08-21T05:06:22;20.80;1.00
29353;DHT22;16344;50.364;8.944;2022-08-21T05:08:49;21.20;1.00
29353;DHT22;16344;50.364;8.944;2022-08-21T05:11:15;21.80;1.00
29353;DHT22;16344;50.364;8.944;2022-08-21T05:13:41;22.40;1.00
29353;DHT22;16344;50.364;8.944;2022-08-21T05:16:07;22.90;1.00
29353;DHT22;16344;50.364;8.944;2022-08-21T05:18:32;23.50;1.00
29353;DHT22;16344;50.364;8.944;2022-08-21T05:20:58;23.80;1.00
29353;DHT22;16344;50.364;8.944;2022-08-21T05:23:24;24.30;1.00
29353;DHT22;16344;50.364;8.944;2022-08-21T05:25:51;24.70;1.00
29353;DHT22;16344;50.364;8.944;2022-08-21T05:28:17;25.20;1.00
29353;DHT22;16344;50.364;8.944;2022-08-21T05:30:43;25.60;1.00
29353;DHT22;16344;50.364;8.944;2022-08-21T05:33:09;26.20;1.00
29353;DHT22;16344;50.364;8.944;2022-08-21T05:35:35;26.70;1.00
29353;DHT22;16344;50.364;8.944;2022-08-21T05:38:01;27.50;99.90
29353;DHT22;16344;50.364;8.944;2022-08-21T05:40:26;27.80;99.90
29353;DHT22;16344;50.364;8.944;2022-08-21T05:42:53;28.20;99.90
29353;DHT22;16344;50.364;8.944;2022-08-21T05:45:19;28.80;99.90
29353;DHT22;16344;50.364;8.944;2022-08-21T05:47:45;29.00;99.90
29353;DHT22;16344;50.364;8.944;2022-08-21T05:50:11;29.40;99.90
29353;DHT22;16344;50.364;8.944;2022-08-21T05:52:36;29.80;99.90
29353;DHT22;16344;50.364;8.944;2022-08-21T05:55:03;29.80;99.90
29353;DHT22;16344;50.364;8.944;2022-08-21T05:57:29;30.30;99.90
29353;DHT22;16344;50.364;8.944;2022-08-21T05:59:54;30.70;99.90
29353;DHT22;16344;50.364;8.944;2022-08-21T06:02:20;31.30;99.90
29353;DHT22;16344;50.364;8.944;2022-08-21T06:04:47;31.70;99.90
29353;DHT22;16344;50.364;8.944;2022-08-21T06:07:13;31.90;99.90
29353;DHT22;16344;50.364;8.944;2022-08-21T06:09:39;31.40;99.90
29353;DHT22;16344;50.364;8.944;2022-08-21T06:12:06;31.80;99.90
29353;DHT22;16344;50.364;8.944;2022-08-21T06:14:34;31.90;99.90
29353;DHT22;16344;50.364;8.944;2022-08-21T06:17:09;31.60;99.90
29353;DHT22;16344;50.364;8.944;2022-08-21T06:19:35;31.60;99.90
29353;DHT22;16344;50.364;8.944;2022-08-21T06:22:01;31.60;99.90
29353;DHT22;16344;50.364;8.944;2022-08-21T06:24:27;31.40;99.90
29353;DHT22;16344;50.364;8.944;2022-08-21T06:26:54;31.20;99.90
29353;DHT22;16344;50.364;8.944;2022-08-21T06:29:20;30.60;99.90
29353;DHT22;16344;50.364;8.944;2022-08-21T06:31:47;30.30;99.90
29353;DHT22;16344;50.364;8.944;2022-08-21T06:34:14;30.00;99.90
29353;DHT22;16344;50.364;8.944;2022-08-21T06:36:39;29.90;99.90
29353;DHT22;16344;50.364;8.944;2022-08-21T06:39:05;29.90;99.90
29353;DHT22;16344;50.364;8.944;2022-08-21T06:41:30;29.60;99.90
29353;DHT22;16344;50.364;8.944;2022-08-21T06:43:56;29.20;99.90
29353;DHT22;16344;50.364;8.944;2022-08-21T06:46:27;28.80;99.90
29353;DHT22;16344;50.364;8.944;2022-08-21T06:48:53;28.70;99.90
29353;DHT22;16344;50.364;8.944;2022-08-21T06:51:19;28.40;99.90
29353;DHT22;16344;50.364;8.944;2022-08-21T06:53:45;27.90;99.90
29353;DHT22;16344;50.364;8.944;2022-08-21T06:56:11;27.70;99.90
29353;DHT22;16344;50.364;8.944;2022-08-21T06:58:36;27.20;99.90
29353;DHT22;16344;50.364;8.944;2022-08-21T07:01:02;27.00;99.90
29353;DHT22;16344;50.364;8.944;2022-08-21T07:03:34;26.90;99.90
29353;DHT22;16344;50.364;8.944;2022-08-21T07:05:59;26.60;99.90
29353;DHT22;16344;50.364;8.944;2022-08-21T07:08:27;26.40;99.90
29353;DHT22;16344;50.364;8.944;2022-08-21T07:10:54;26.20;99.90
29353;DHT22;16344;50.364;8.944;2022-08-21T07:13:20;26.40;99.90
29353;DHT22;16344;50.364;8.944;2022-08-21T07:15:46;26.40;99.90
29353;DHT22;16344;50.364;8.944;2022-08-21T07:18:12;26.40;99.90
29353;DHT22;16344;50.364;8.944;2022-08-21T07:20:39;26.50;99.90
29353;DHT22;16344;50.364;8.944;2022-08-21T07:23:08;26.50;99.90
29353;DHT22;16344;50.364;8.944;2022-08-21T07:25:34;26.60;99.90
29353;DHT22;16344;50.364;8.944;2022-08-21T07:27:59;26.40;99.90
29353;DHT22;16344;50.364;8.944;2022-08-21T07:30:25;26.70;99.90
29353;DHT22;16344;50.364;8.944;2022-08-21T07:32:51;26.80;99.90
29353;DHT22;16344;50.364;8.944;2022-08-21T07:35:18;26.80;99.90
29353;DHT22;16344;50.364;8.944;2022-08-21T07:37:44;27.10;99.90
29353;DHT22;16344;50.364;8.944;2022-08-21T07:40:11;27.10;99.90
29353;DHT22;16344;50.364;8.944;2022-08-21T07:42:44;27.30;99.90
29353;DHT22;16344;50.364;8.944;2022-08-21T07:45:11;27.10;99.90
29353;DHT22;16344;50.364;8.944;2022-08-21T07:47:37;27.00;99.90
29353;DHT22;16344;50.364;8.944;2022-08-21T07:50:04;27.10;99.90
29353;DHT22;16344;50.364;8.944;2022-08-21T07:52:30;27.00;99.90
29353;DHT22;16344;50.364;8.944;2022-08-21T07:54:55;27.10;99.90
29353;DHT22;16344;50.364;8.944;2022-08-21T07:57:21;27.00;99.90
29353;DHT22;16344;50.364;8.944;2022-08-21T07:59:46;27.00;99.90
29353;DHT22;16344;50.364;8.944;2022-08-21T08:02:25;27.00;99.90
29353;DHT22;16344;50.364;8.944;2022-08-21T08:04:51;27.00;99.90
29353;DHT22;16344;50.364;8.944;2022-08-21T08:07:17;26.80;99.90
29353;DHT22;16344;50.364;8.944;2022-08-21T08:09:43;27.10;99.90
29353;DHT22;16344;50.364;8.944;2022-08-21T08:12:09;27.00;99.90
29353;DHT22;16344;50.364;8.944;2022-08-21T08:14:35;26.80;99.90
29353;DHT22;16344;50.364;8.944;2022-08-21T08:17:00;26.60;99.90
29353;DHT22;16344;50.364;8.944;2022-08-21T08:19:27;27.00;99.90
29353;DHT22;16344;50.364;8.944;2022-08-21T08:21:53;26.80;99.90
29353;DHT22;16344;50.364;8.944;2022-08-21T08:24:19;26.90;99.90
29353;DHT22;16344;50.364;8.944;2022-08-21T08:26:44;27.00;99.90
29353;DHT22;16344;50.364;8.944;2022-08-21T08:29:10;26.90;99.90
29353;DHT22;16344;50.364;8.944;2022-08-21T08:31:35;26.90;99.90
29353;DHT22;16344;50.364;8.944;2022-08-21T08:34:01;27.10;99.90
29353;DHT22;16344;50.364;8.944;2022-08-21T08:36:35;27.30;99.90
29353;DHT22;16344;50.364;8.944;2022-08-21T08:39:02;27.00;99.90
29353;DHT22;16344;50.364;8.944;2022-08-21T08:41:29;26.90;99.90
29353;DHT22;16344;50.364;8.944;2022-08-21T08:43:59;27.10;99.90
29353;DHT22;16344;50.364;8.944;2022-08-21T08:46:33;27.10;99.90
29353;DHT22;16344;50.364;8.944;2022-08-21T08:49:46;27.30;99.90
29353;DHT22;16344;50.364;8.944;2022-08-21T08:51:59;27.40;99.90
29353;DHT22;16344;50.364;8.944;2022-08-21T08:54:32;27.40;99.90
29353;DHT22;16344;50.364;8.944;2022-08-21T08:57:00;27.50;99.90
29353;DHT22;16344;50.364;8.944;2022-08-21T08:59:39;27.40;99.90
29353;DHT22;16344;50.364;8.944;2022-08-21T09:02:05;27.40;99.90
29353;DHT22;16344;50.364;8.944;2022-08-21T09:04:32;27.60;99.90
29353;DHT22;16344;50.364;8.944;2022-08-21T09:07:17;27.50;99.90
29353;DHT22;16344;50.364;8.944;2022-08-21T09:09:55;27.40;99.90
29353;DHT22;16344;50.364;8.944;2022-08-21T09:18:16;27.40;99.90
29353;DHT22;16344;50.364;8.944;2022-08-21T09:21:02;27.40;99.90
29353;DHT22;16344;50.364;8.944;2022-08-21T09:26:15;27.70;99.90
29353;DHT22;16344;50.364;8.944;2022-08-21T09:28:41;27.90;99.90
29353;DHT22;16344;50.364;8.944;2022-08-21T09:31:14;27.90;99.90
29353;DHT22;16344;50.364;8.944;2022-08-21T09:33:41;28.10;99.90
29353;DHT22;16344;50.364;8.944;2022-08-21T09:36:06;28.20;99.90
29353;DHT22;16344;50.364;8.944;2022-08-21T09:38:36;28.30;99.90
29353;DHT22;16344;50.364;8.944;2022-08-21T09:41:11;28.40;99.90
29353;DHT22;16344;50.364;8.944;2022-08-21T09:43:37;28.40;99.90
29353;DHT22;16344;50.364;8.944;2022-08-21T09:46:20;28.50;99.90
29353;DHT22;16344;50.364;8.944;2022-08-21T09:48:47;28.30;99.90
29353;DHT22;16344;50.364;8.944;2022-08-21T09:51:20;27.90;99.90
29353;DHT22;16344;50.364;8.944;2022-08-21T09:53:51;28.00;99.90
29353;DHT22;16344;50.364;8.944;2022-08-21T09:56:58;28.10;99.90
29353;DHT22;16344;50.364;8.944;2022-08-21T09:59:41;28.10;99.90
29353;DHT22;16344;50.364;8.944;2022-08-21T10:02:28;28.20;99.90
29353;DHT22;16344;50.364;8.944;2022-08-21T10:05:03;28.20;99.90
29353;DHT22;16344;50.364;8.944;2022-08-21T10:07:31;28.20;99.90
29353;DHT22;16344;50.364;8.944;2022-08-21T10:10:05;28.60;99.90
29353;DHT22;16344;50.364;8.944;2022-08-21T10:12:40;28.80;99.90
29353;DHT22;16344;50.364;8.944;2022-08-21T10:18:04;29.00;99.90
29353;DHT22;16344;50.364;8.944;2022-08-21T10:26:02;29.20;99.90
29353;DHT22;16344;50.364;8.944;2022-08-21T10:40:04;29.10;99.90
29353;DHT22;16344;50.364;8.944;2022-08-21T10:42:37;29.00;99.90
29353;DHT22;16344;50.364;8.944;2022-08-21T10:47:49;29.30;99.90
29353;DHT22;16344;50.364;8.944;2022-08-21T10:50:29;29.00;99.90
29353;DHT22;16344;50.364;8.944;2022-08-21T10:56:21;29.00;99.90
29353;DHT22;16344;50.364;8.944;2022-08-21T11:04:07;29.20;99.90
29353;DHT22;16344;50.364;8.944;2022-08-21T11:06:37;29.10;99.90
29353;DHT22;16344;50.364;8.944;2022-08-21T11:09:19;29.40;99.90
29353;DHT22;16344;50.364;8.944;2022-08-21T11:12:06;29.50;99.90
29353;DHT22;16344;50.364;8.944;2022-08-21T11:14:51;29.50;99.90
29353;DHT22;16344;50.364;8.944;2022-08-21T11:17:24;29.70;99.90
29353;DHT22;16344;50.364;8.944;2022-08-21T11:20:12;29.70;99.90
29353;DHT22;16344;50.364;8.944;2022-08-21T11:23:13;29.80;99.90
29353;DHT22;16344;50.364;8.944;2022-08-21T11:26:05;30.00;99.90
29353;DHT22;16344;50.364;8.944;2022-08-21T11:28:37;29.90;99.90
29353;DHT22;16344;50.364;8.944;2022-08-21T11:31:13;30.20;99.90
29353;DHT22;16344;50.364;8.944;2022-08-21T11:34:00;30.00;99.90
29353;DHT22;16344;50.364;8.944;2022-08-21T11:36:42;30.10;99.90
29353;DHT22;16344;50.364;8.944;2022-08-21T11:39:31;30.00;99.90
29353;DHT22;16344;50.364;8.944;2022-08-21T11:42:13;30.20;99.90
29353;DHT22;16344;50.364;8.944;2022-08-21T11:45:08;30.00;99.90
29353;DHT22;16344;50.364;8.944;2022-08-21T11:50:40;29.90;99.90
29353;DHT22;16344;50.364;8.944;2022-08-21T11:55:55;30.30;99.90
29353;DHT22;16344;50.364;8.944;2022-08-21T11:58:32;30.60;99.90
29353;DHT22;16344;50.364;8.944;2022-08-21T12:01:06;30.80;99.90
29353;DHT22;16344;50.364;8.944;2022-08-21T12:03:35;30.70;99.90
29353;DHT22;16344;50.364;8.944;2022-08-21T12:06:06;30.70;99.90
29353;DHT22;16344;50.364;8.944;2022-08-21T12:11:06;30.60;99.90
29353;DHT22;16344;50.364;8.944;2022-08-21T12:13:51;30.60;99.90
29353;DHT22;16344;50.364;8.944;2022-08-21T12:16:30;30.60;99.90
29353;DHT22;16344;50.364;8.944;2022-08-21T12:24:36;30.60;99.90
29353;DHT22;16344;50.364;8.944;2022-08-21T12:29:49;30.40;99.90
29353;DHT22;16344;50.364;8.944;2022-08-21T12:34:53;30.20;99.90
29353;DHT22;16344;50.364;8.944;2022-08-21T12:37:27;30.40;99.90
29353;DHT22;16344;50.364;8.944;2022-08-21T12:39:58;30.50;99.90
29353;DHT22;16344;50.364;8.944;2022-08-21T12:42:38;30.60;99.90
29353;DHT22;16344;50.364;8.944;2022-08-21T12:48:08;30.90;99.90
29353;DHT22;16344;50.364;8.944;2022-08-21T12:50:41;31.00;99.90
29353;DHT22;16344;50.364;8.944;2022-08-21T12:53:08;31.00;99.90
29353;DHT22;16344;50.364;8.944;2022-08-21T12:55:35;30.90;99.90
29353;DHT22;16344;50.364;8.944;2022-08-21T12:58:05;30.90;99.90
29353;DHT22;16344;50.364;8.944;2022-08-21T13:00:31;30.70;99.90
29353;DHT22;16344;50.364;8.944;2022-08-21T13:02:57;30.80;99.90
29353;DHT22;16344;50.364;8.944;2022-08-21T13:05:34;30.70;99.90
29353;DHT22;16344;50.364;8.944;2022-08-21T13:08:04;31.00;99.90
29353;DHT22;16344;50.364;8.944;2022-08-21T13:10:32;30.80;99.90
29353;DHT22;16344;50.364;8.944;2022-08-21T13:13:02;30.40;99.90
29353;DHT22;16344;50.364;8.944;2022-08-21T13:15:32;30.20;99.90
29353;DHT22;16344;50.364;8.944;2022-08-21T13:18:00;30.40;99.90
29353;DHT22;16344;50.364;8.944;2022-08-21T13:22:55;30.70;99.90
29353;DHT22;16344;50.364;8.944;2022-08-21T13:25:26;30.70;99.90
29353;DHT22;16344;50.364;8.944;2022-08-21T13:28:06;30.80;99.90
29353;DHT22;16344;50.364;8.944;2022-08-21T13:30:33;31.10;99.90
29353;DHT22;16344;50.364;8.944;2022-08-21T13:33:00;30.90;99.90
29353;DHT22;16344;50.364;8.944;2022-08-21T13:35:51;30.80;99.90
29353;DHT22;16344;50.364;8.944;2022-08-21T13:38:15;30.70;99.90
29353;DHT22;16344;50.364;8.944;2022-08-21T13:40:48;30.60;99.90
29353;DHT22;16344;50.364;8.944;2022-08-21T13:43:15;30.40;99.90
29353;DHT22;16344;50.364;8.944;2022-08-21T13:45:46;30.20;99.90
29353;DHT22;16344;50.364;8.944;2022-08-21T13:48:12;30.40;99.90
29353;DHT22;16344;50.364;8.944;2022-08-21T13:50:38;30.30;99.90
29353;DHT22;16344;50.364;8.944;2022-08-21T13:53:07;30.50;99.90
29353;DHT22;16344;50.364;8.944;2022-08-21T13:55:41;30.80;99.90
29353;DHT22;16344;50.364;8.944;2022-08-21T13:58:07;30.90;99.90
29353;DHT22;16344;50.364;8.944;2022-08-21T14:00:51;31.20;99.90
29353;DHT22;16344;50.364;8.944;2022-08-21T14:03:37;30.90;99.90
29353;DHT22;16344;50.364;8.944;2022-08-21T14:06:18;30.90;99.90
29353;DHT22;16344;50.364;8.944;2022-08-21T14:11:19;30.30;99.90
29353;DHT22;16344;50.364;8.944;2022-08-21T14:13:50;30.30;99.90
29353;DHT22;16344;50.364;8.944;2022-08-21T14:16:28;30.40;99.90
29353;DHT22;16344;50.364;8.944;2022-08-21T14:19:53;30.50;99.90
29353;DHT22;16344;50.364;8.944;2022-08-21T14:21:54;30.40;99.90
29353;DHT22;16344;50.364;8.944;2022-08-21T14:27:05;30.10;99.90
29353;DHT22;16344;50.364;8.944;2022-08-21T14:29:36;30.20;99.90
29353;DHT22;16344;50.364;8.944;2022-08-21T14:32:16;30.30;99.90
29353;DHT22;16344;50.364;8.944;2022-08-21T14:34:44;30.40;99.90
29353;DHT22;16344;50.364;8.944;2022-08-21T14:37:10;30.20;99.90
29353;DHT22;16344;50.364;8.944;2022-08-21T14:39:35;30.40;99.90
29353;DHT22;16344;50.364;8.944;2022-08-21T14:42:01;30.40;99.90
29353;DHT22;16344;50.364;8.944;2022-08-21T14:44:27;30.60;99.90
29353;DHT22;16344;50.364;8.944;2022-08-21T14:46:53;30.40;99.90
29353;DHT22;16344;50.364;8.944;2022-08-21T14:49:19;30.20;99.90
29353;DHT22;16344;50.364;8.944;2022-08-21T14:51:44;30.30;99.90
29353;DHT22;16344;50.364;8.944;2022-08-21T14:54:10;30.40;99.90
29353;DHT22;16344;50.364;8.944;2022-08-21T14:56:35;30.40;99.90
29353;DHT22;16344;50.364;8.944;2022-08-21T14:59:05;30.40;99.90
29353;DHT22;16344;50.364;8.944;2022-08-21T15:01:34;30.50;99.90
29353;DHT22;16344;50.364;8.944;2022-08-21T15:03:59;30.50;99.90
29353;DHT22;16344;50.364;8.944;2022-08-21T15:06:25;30.60;99.90
29353;DHT22;16344;50.364;8.944;2022-08-21T15:08:50;30.60;99.90
29353;DHT22;16344;50.364;8.944;2022-08-21T15:11:21;30.60;99.90
29353;DHT22;16344;50.364;8.944;2022-08-21T15:13:51;30.70;99.90
29353;DHT22;16344;50.364;8.944;2022-08-21T15:16:18;30.70;99.90
29353;DHT22;16344;50.364;8.944;2022-08-21T15:18:43;30.60;99.90
29353;DHT22;16344;50.364;8.944;2022-08-21T15:21:09;30.70;99.90
29353;DHT22;16344;50.364;8.944;2022-08-21T15:23:35;30.70;99.90
29353;DHT22;16344;50.364;8.944;2022-08-21T15:26:01;30.60;99.90
29353;DHT22;16344;50.364;8.944;2022-08-21T15:28:26;30.70;99.90
29353;DHT22;16344;50.364;8.944;2022-08-21T15:30:52;30.60;99.90
29353;DHT22;16344;50.364;8.944;2022-08-21T15:33:18;30.60;99.90
29353;DHT22;16344;50.364;8.944;2022-08-21T15:35:44;30.40;99.90
29353;DHT22;16344;50.364;8.944;2022-08-21T15:38:11;30.40;99.90
29353;DHT22;16344;50.364;8.944;2022-08-21T15:40:37;30.20;99.90
29353;DHT22;16344;50.364;8.944;2022-08-21T15:43:04;30.30;99.90
29353;DHT22;16344;50.364;8.944;2022-08-21T15:45:31;30.20;99.90
29353;DHT22;16344;50.364;8.944;2022-08-21T15:47:57;30.20;99.90
29353;DHT22;16344;50.364;8.944;2022-08-21T15:50:24;30.10;99.90
29353;DHT22;16344;50.364;8.944;2022-08-21T15:52:51;30.00;99.90
29353;DHT22;16344;50.364;8.944;2022-08-21T15:55:16;30.00;99.90
29353;DHT22;16344;50.364;8.944;2022-08-21T15:57:45;29.80;99.90
29353;DHT22;16344;50.364;8.944;2022-08-21T16:00:15;29.80;99.90
29353;DHT22;16344;50.364;8.944;2022-08-21T16:02:47;29.80;99.90
29353;DHT22;16344;50.364;8.944;2022-08-21T16:05:13;29.80;99.90
29353;DHT22;16344;50.364;8.944;2022-08-21T16:07:42;29.90;99.90
29353;DHT22;16344;50.364;8.944;2022-08-21T16:10:08;29.80;99.90
29353;DHT22;16344;50.364;8.944;2022-08-21T16:12:38;29.90;99.90
29353;DHT22;16344;50.364;8.944;2022-08-21T16:15:08;30.00;99.90
29353;DHT22;16344;50.364;8.944;2022-08-21T16:17:35;30.00;99.90
29353;DHT22;16344;50.364;8.944;2022-08-21T16:20:04;30.20;99.90
29353;DHT22;16344;50.364;8.944;2022-08-21T16:22:31;30.20;99.90
29353;DHT22;16344;50.364;8.944;2022-08-21T16:24:57;30.10;99.90
29353;DHT22;16344;50.364;8.944;2022-08-21T16:27:22;30.00;99.90
29353;DHT22;16344;50.364;8.944;2022-08-21T16:29:48;30.20;99.90
29353;DHT22;16344;50.364;8.944;2022-08-21T16:32:14;30.10;99.90
29353;DHT22;16344;50.364;8.944;2022-08-21T16:34:45;30.10;99.90
29353;DHT22;16344;50.364;8.944;2022-08-21T16:37:12;30.30;99.90
29353;DHT22;16344;50.364;8.944;2022-08-21T16:39:37;30.10;99.90
29353;DHT22;16344;50.364;8.944;2022-08-21T16:42:03;30.20;99.90
29353;DHT22;16344;50.364;8.944;2022-08-21T16:44:29;30.30;99.90
29353;DHT22;16344;50.364;8.944;2022-08-21T16:46:54;30.10;99.90
29353;DHT22;16344;50.364;8.944;2022-08-21T16:49:20;30.00;99.90
29353;DHT22;16344;50.364;8.944;2022-08-21T16:51:45;30.20;99.90
29353;DHT22;16344;50.364;8.944;2022-08-21T16:54:12;30.00;99.90